createdAt,value
2018-02-22T00:00:49.715Z,99.47
2018-02-22T00:01:49.720Z,99.47
2018-02-22T00:02:49.690Z,99.57
2018-02-22T00:03:49.674Z,99.57
2018-02-22T00:04:49.654Z,99.76
2018-02-22T00:05:49.639Z,99.28
2018-02-22T02:24:15.874Z,97.91
2018-02-22T02:25:16.867Z,98.1
2018-02-22T02:26:16.066Z,97.53
2018-02-22T02:27:16.044Z,97.63
2018-02-22T02:28:15.811Z,97.63
2018-02-22T02:29:16.109Z,97.63
2018-02-22T02:30:15.805Z,97.34
2018-02-22T02:31:15.791Z,97.72
2018-02-22T02:32:15.775Z,98.01
2018-02-22T02:33:15.744Z,97.91
2018-02-22T02:34:15.739Z,97.82
2018-02-22T02:35:15.726Z,97.82
2018-02-22T02:36:15.712Z,97.82
2018-02-22T02:37:15.704Z,98.1
2018-02-22T02:38:15.668Z,98.01
2018-02-22T02:39:15.650Z,97.72
2018-02-22T02:40:15.636Z,98.1
2018-02-22T02:41:15.362Z,98.1
2018-02-22T02:42:15.611Z,97.63
2018-02-22T02:43:15.588Z,97.72
2018-02-22T02:44:15.567Z,97.63
2018-02-22T02:45:15.547Z,98.01
2018-02-22T02:46:15.549Z,97.82
2018-02-22T02:47:15.527Z,97.91
2018-02-22T02:48:15.504Z,98.77
2018-02-22T02:49:15.507Z,98.48
2018-02-22T02:50:15.466Z,98.29
2018-02-22T02:51:15.471Z,98.29
2018-02-22T02:52:15.446Z,98.77
2018-02-22T02:53:15.436Z,97.82
2018-02-22T02:54:15.469Z,97.72
2018-02-22T02:55:15.388Z,97.63
2018-02-22T02:56:15.370Z,97.53
2018-02-22T02:57:15.371Z,97.91
2018-02-22T02:58:15.358Z,97.72
2018-02-22T02:59:15.324Z,97.63
2018-02-22T03:00:15.305Z,97.72
2018-02-22T03:01:15.302Z,97.53
2018-02-22T03:02:15.025Z,97.25
2018-02-22T03:03:15.264Z,97.44
2018-02-22T03:04:15.243Z,97.25
2018-02-22T03:05:15.244Z,97.06
2018-02-22T03:06:15.208Z,97.44
2018-02-22T03:07:15.207Z,97.44
2018-02-22T03:08:15.187Z,97.06
2018-02-22T03:09:15.174Z,97.25
2018-02-22T03:10:14.891Z,96.88
2018-02-22T03:11:15.136Z,97.44
2018-02-22T03:12:15.123Z,97.34
2018-02-22T03:13:15.126Z,97.44
2018-02-22T03:14:15.096Z,97.53
2018-02-22T03:15:15.066Z,97.53
2018-02-22T03:16:15.050Z,97.25
2018-02-22T03:17:15.034Z,97.63
2018-02-22T03:18:15.026Z,97.53
2018-02-22T03:19:15.005Z,97.53
2018-02-22T03:20:14.999Z,97.44
2018-02-22T03:21:14.966Z,97.53
2018-02-22T03:22:14.961Z,98.01
2018-02-22T03:23:14.941Z,98.01
2018-02-22T03:24:14.932Z,97.72
2018-02-22T03:25:14.901Z,97.72
2018-02-22T03:26:14.895Z,97.82
2018-02-22T03:27:14.872Z,98.58
2018-02-22T03:28:14.856Z,98.01
2018-02-22T03:29:14.852Z,98.39
2018-02-22T03:30:14.571Z,98.2
2018-02-22T03:31:14.812Z,98.67
2018-02-22T03:32:14.786Z,97.82
2018-02-22T03:33:14.785Z,97.72
2018-02-22T03:34:14.774Z,98.58
2018-02-22T03:35:14.749Z,98.48
2018-02-22T03:36:14.734Z,98.2
2018-02-22T03:37:14.713Z,98.29
2018-02-22T03:38:14.705Z,98.48
2018-02-22T03:39:14.673Z,98.77
2018-02-22T03:40:14.676Z,98.58
2018-02-22T03:41:14.641Z,98.77
2018-02-22T03:42:14.640Z,98.86
2018-02-22T03:43:14.624Z,98.77
2018-02-22T03:44:14.608Z,98.67
2018-02-22T03:45:14.580Z,98.86
2018-02-22T03:46:14.565Z,98.58
2018-02-22T03:47:14.556Z,98.58
2018-02-22T03:48:14.546Z,98.39
2018-02-22T03:49:14.521Z,98.39
2018-02-22T03:50:14.497Z,98.2
2018-02-22T03:51:14.497Z,98.2
2018-02-22T03:52:14.217Z,98.58
2018-02-22T03:53:14.446Z,98.2
2018-02-22T03:54:14.447Z,98.48
2018-02-22T03:55:14.427Z,98.48
2018-02-22T03:56:14.407Z,97.72
2018-02-22T03:57:14.388Z,97.72
2018-02-22T03:58:14.377Z,97.63
2018-02-22T03:59:14.102Z,97.82
2018-02-22T04:00:14.345Z,98.1
2018-02-22T04:01:14.323Z,98.01
2018-02-22T04:02:14.308Z,97.53
2018-02-22T04:03:14.296Z,98.29
2018-02-22T04:04:14.282Z,98.29
2018-02-22T04:05:14.262Z,98.39
2018-02-22T04:06:14.243Z,98.67
2018-02-22T04:07:14.226Z,98.58
2018-02-22T04:08:14.202Z,99.15
2018-02-22T04:09:14.206Z,99.15
2018-02-22T04:10:14.175Z,98.96
2018-02-22T04:11:14.170Z,99.05
2018-02-22T04:12:14.134Z,98.48
2018-02-22T04:13:14.196Z,98.43
2018-02-22T04:14:14.112Z,98.62
2018-02-22T04:15:14.092Z,99.19
2018-02-22T04:16:14.070Z,99
2018-02-22T04:17:14.076Z,99.09
2018-02-22T04:18:14.059Z,99.47
2018-02-22T04:19:14.036Z,99.28
2018-02-22T04:20:14.027Z,99.47
2018-02-22T04:21:14.004Z,99.09
2018-02-22T04:22:13.983Z,99.76
2018-02-22T04:23:13.979Z,99.47
2018-02-22T04:24:13.940Z,99.47
2018-02-22T04:25:13.945Z,99.57
2018-02-22T04:26:13.909Z,99.66
2018-02-22T04:27:13.906Z,99.85
2018-02-22T04:28:13.872Z,99.66
2018-02-22T04:29:13.870Z,99.99
2018-02-22T04:30:13.844Z,99.85
2018-02-22T04:31:13.836Z,99.99
2018-02-22T04:32:13.809Z,99.99
2018-02-22T04:33:13.814Z,99.99
2018-02-22T04:34:13.790Z,99.99
2018-02-22T04:35:13.765Z,99.99
2018-02-22T04:36:13.488Z,99.99
2018-02-22T04:37:13.725Z,99.99
2018-02-22T04:38:13.721Z,99.99
2018-02-22T04:39:13.943Z,99.99
2018-02-22T04:40:13.686Z,99.99
2018-02-22T04:41:13.660Z,99.99
2018-02-22T04:42:13.654Z,99.99
2018-02-22T04:43:13.634Z,99.99
2018-02-22T04:44:13.604Z,99.99
2018-02-22T04:45:13.606Z,99.99
2018-02-22T04:46:13.568Z,99.99
2018-02-22T04:47:13.567Z,99.99
2018-02-22T04:48:13.548Z,99.99
2018-02-22T04:49:13.275Z,99.99
2018-02-22T04:50:13.522Z,99.99
2018-02-22T04:51:13.490Z,99.99
2018-02-22T04:52:13.478Z,99.99
2018-02-22T04:53:13.455Z,99.99
2018-02-22T04:54:13.456Z,99.99
2018-02-22T04:55:13.431Z,99.99
2018-02-22T04:56:13.412Z,99.99
2018-02-22T04:57:13.129Z,99.99
2018-02-22T04:58:13.387Z,99.99
2018-02-22T04:59:13.351Z,99.99
2018-02-22T05:00:13.348Z,99.99
2018-02-22T05:01:13.323Z,99.99
2018-02-22T05:02:13.052Z,99.99
2018-02-22T05:03:13.299Z,99.99
2018-02-22T05:04:13.327Z,99.99
2018-02-22T05:05:13.264Z,99.99
2018-02-22T05:06:13.234Z,99.99
2018-02-22T05:07:13.230Z,99.99
2018-02-22T05:08:13.212Z,99.99
2018-02-22T05:09:13.189Z,99.99
2018-02-22T05:10:13.430Z,99.99
2018-02-22T05:11:13.150Z,99.99
2018-02-22T05:12:13.150Z,99.99
2018-02-22T05:13:13.116Z,99.99
2018-02-22T05:14:13.153Z,99.99
2018-02-22T05:15:13.090Z,99.99
2018-02-22T05:16:13.079Z,99.99
2018-02-22T05:17:13.062Z,99.99
2018-02-22T05:18:12.783Z,99.99
2018-02-22T05:19:13.021Z,99.99
2018-02-22T05:20:13.010Z,99.99
2018-02-22T05:21:12.997Z,99.99
2018-02-22T05:22:12.972Z,99.99
2018-02-22T05:23:12.961Z,99.99
2018-02-22T05:24:12.943Z,99.99
2018-02-22T05:25:12.921Z,99.99
2018-02-22T05:26:12.900Z,99.99
2018-02-22T05:27:12.934Z,99.99
2018-02-22T05:28:12.866Z,99.99
2018-02-22T05:29:12.855Z,99.99
2018-02-22T05:30:12.826Z,99.99
2018-02-22T05:31:12.820Z,99.99
2018-02-22T05:32:12.791Z,99.99
2018-02-22T05:33:12.788Z,99.99
2018-02-22T05:34:12.817Z,99.99
2018-02-22T05:35:12.746Z,99.99
2018-02-22T05:36:12.734Z,99.99
2018-02-22T05:37:12.700Z,99.99
2018-02-22T05:38:12.689Z,99.99
2018-02-22T05:39:12.687Z,99.99
2018-02-22T05:40:12.668Z,99.99
2018-02-22T05:41:12.685Z,99.99
2018-02-22T05:42:12.615Z,99.99
2018-02-22T05:43:12.612Z,99.99
2018-02-22T05:44:12.588Z,99.99
2018-02-22T05:45:12.582Z,99.99
2018-02-22T05:46:12.559Z,99.99
2018-02-22T05:47:12.548Z,99.99
2018-02-22T05:48:12.509Z,99.99
2018-02-22T05:49:12.503Z,99.99
2018-02-22T05:50:12.484Z,99.99
2018-02-22T05:51:12.202Z,99.99
2018-02-22T05:52:12.436Z,99.99
2018-02-22T05:53:12.439Z,99.99
2018-02-22T05:54:12.157Z,99.99
2018-02-22T05:55:12.389Z,99.99
2018-02-22T05:56:12.378Z,99.99
2018-02-22T05:57:12.099Z,99.99
2018-02-22T05:58:12.348Z,99.99
2018-02-22T05:59:12.326Z,99.99
2018-02-22T06:00:12.304Z,99.99
2018-02-22T06:01:12.295Z,99.99
2018-02-22T06:02:12.263Z,99.99
2018-02-22T06:03:12.261Z,99.99
2018-02-22T06:04:12.230Z,99.99
2018-02-22T06:05:12.224Z,99.99
2018-02-22T06:06:11.931Z,99.99
2018-02-22T06:07:12.184Z,99.99
2018-02-22T06:08:12.153Z,99.99
2018-02-22T06:09:11.888Z,99.99
2018-02-22T06:10:11.890Z,99.99
2018-02-22T06:11:12.123Z,99.99
2018-02-22T06:12:11.824Z,99.99
2018-02-22T06:13:12.078Z,99.99
2018-02-22T06:14:12.091Z,99.99
2018-02-22T06:15:12.045Z,99.99
2018-02-22T06:16:12.011Z,99.99
2018-02-22T06:17:11.747Z,99.99
2018-02-22T06:18:11.990Z,99.99
2018-02-22T06:19:11.973Z,99.99
2018-02-22T06:20:11.938Z,99.99
2018-02-22T06:21:11.934Z,99.99
2018-02-22T06:22:11.912Z,99.99
2018-02-22T06:23:11.900Z,99.99
2018-02-22T06:24:11.877Z,99.99
2018-02-22T06:25:11.876Z,99.99
2018-02-22T06:26:11.832Z,99.99
2018-02-22T06:27:11.824Z,99.99
2018-02-22T06:28:11.817Z,99.99
2018-02-22T06:29:11.798Z,99.99
2018-02-22T06:30:11.764Z,99.99
2018-02-22T06:31:11.764Z,99.99
2018-02-22T06:32:11.469Z,99.99
2018-02-22T06:33:11.728Z,99.99
2018-02-22T06:34:11.703Z,99.99
2018-02-22T06:35:11.426Z,99.99
2018-02-22T06:36:11.663Z,99.99
2018-02-22T06:37:11.655Z,99.99
2018-02-22T06:38:11.621Z,99.99
2018-02-22T06:39:11.605Z,99.99
2018-02-22T06:40:11.588Z,99.99
2018-02-22T06:41:11.626Z,99.99
2018-02-22T06:42:11.567Z,99.99
2018-02-22T06:43:11.276Z,99.99
2018-02-22T06:44:11.516Z,99.99
2018-02-22T06:45:11.509Z,99.99
2018-02-22T06:46:11.491Z,99.99
2018-02-22T06:47:11.463Z,99.99
2018-02-22T06:48:11.447Z,99.99
2018-02-22T06:49:11.432Z,99.99
2018-02-22T06:50:11.420Z,99.99
2018-02-22T06:51:11.405Z,99.99
2018-02-22T06:52:11.120Z,99.99
2018-02-22T06:53:11.367Z,99.99
2018-02-22T06:54:11.092Z,99.99
2018-02-22T06:55:11.356Z,99.99
2018-02-22T06:56:11.314Z,99.99
2018-02-22T06:57:11.298Z,99.99
2018-02-22T06:58:11.282Z,99.95
2018-02-22T06:59:11.264Z,99.85
2018-02-22T07:00:11.254Z,99.85
2018-02-22T07:01:11.248Z,99.95
2018-02-22T07:02:11.225Z,99.19
2018-02-22T07:03:11.198Z,99.33
2018-02-22T07:04:11.199Z,98.48
2018-02-22T07:05:11.197Z,98.01
2018-02-22T07:06:11.166Z,98.1
2018-02-22T07:07:11.154Z,97.44
2018-02-22T07:08:11.125Z,96.4
2018-02-22T07:09:11.111Z,96.69
2018-02-22T07:10:11.106Z,97.06
2018-02-22T07:11:11.076Z,96.12
2018-02-22T07:12:11.078Z,96.02
2018-02-22T07:13:11.049Z,95.83
2018-02-22T07:14:11.044Z,95.55
2018-02-22T07:15:11.023Z,95.64
2018-02-22T07:16:11.018Z,94.89
2018-02-22T07:17:10.999Z,95.64
2018-02-22T07:18:10.728Z,95.74
2018-02-22T07:19:10.968Z,95.45
2018-02-22T07:20:10.962Z,95.36
2018-02-22T07:21:10.945Z,95.45
2018-02-22T07:22:10.927Z,95.26
2018-02-22T07:23:19.457Z,95.45
2018-02-22T07:24:10.894Z,95.36
2018-02-22T07:25:10.898Z,95.36
2018-02-22T07:26:10.886Z,95.83
2018-02-22T07:27:10.852Z,95.36
2018-02-22T07:28:10.855Z,94.79
2018-02-22T07:29:10.832Z,94.23
2018-02-22T07:30:10.814Z,93.85
2018-02-22T07:31:10.548Z,93.94
2018-02-22T07:32:10.794Z,94.13
2018-02-22T07:33:10.774Z,94.23
2018-02-22T07:34:10.764Z,94.23
2018-02-22T07:35:10.748Z,94.6
2018-02-22T07:36:10.744Z,94.32
2018-02-22T07:37:10.741Z,94.23
2018-02-22T07:38:10.449Z,94.23
2018-02-22T07:39:10.735Z,94.51
2018-02-22T07:40:10.682Z,94.04
2018-02-22T07:41:10.677Z,94.04
2018-02-22T07:42:10.661Z,94.6
2018-02-22T07:43:10.708Z,93.75
2018-02-22T07:44:10.632Z,93.94
2018-02-22T07:45:10.612Z,93.56
2018-02-22T07:46:10.601Z,93.56
2018-02-22T07:47:10.597Z,93.85
2018-02-22T07:48:10.570Z,93.94
2018-02-22T07:49:10.566Z,93.47
2018-02-22T07:50:10.551Z,93.18
2018-02-22T07:51:10.532Z,92.71
2018-02-22T07:52:10.527Z,92.61
2018-02-22T07:53:10.524Z,92.61
2018-02-22T07:54:10.494Z,92.9
2018-02-22T07:55:10.479Z,93.09
2018-02-22T07:56:10.469Z,93.09
2018-02-22T07:57:10.464Z,92.8
2018-02-22T07:58:10.455Z,92.8
2018-02-22T07:59:10.428Z,92.8
2018-02-22T08:00:10.519Z,93.28
2018-02-22T08:01:10.399Z,93.47
2018-02-22T08:02:10.385Z,93.28
2018-02-22T08:03:10.122Z,94.23
2018-02-22T08:04:10.375Z,93.66
2018-02-22T08:05:10.353Z,93.56
2018-02-22T08:06:10.344Z,93.09
2018-02-22T08:07:10.328Z,93.56
2018-02-22T08:08:10.317Z,93.18
2018-02-22T08:09:10.289Z,93.23
2018-02-22T08:10:10.280Z,92.94
2018-02-22T08:11:10.270Z,92.19
2018-02-22T08:12:10.262Z,91.62
2018-02-22T08:13:09.976Z,90.58
2018-02-22T08:14:10.228Z,90.2
2018-02-22T08:15:10.205Z,90.67
2018-02-22T08:16:10.200Z,90.48
2018-02-22T08:17:10.428Z,90.2
2018-02-22T08:18:10.171Z,90.48
2018-02-22T08:19:10.151Z,90.3
2018-02-22T08:20:09.878Z,91.05
2018-02-22T08:21:10.122Z,90.77
2018-02-22T08:22:10.119Z,90.48
2018-02-22T08:23:10.204Z,90.39
2018-02-22T08:24:10.079Z,90.3
2018-02-22T08:25:10.071Z,90.48
2018-02-22T08:26:10.058Z,90.11
2018-02-22T08:27:10.057Z,90.3
2018-02-22T08:28:09.770Z,90.39
2018-02-22T08:29:10.018Z,90.2
2018-02-22T08:30:09.996Z,90.39
2018-02-22T08:31:09.991Z,90.48
2018-02-22T08:32:09.980Z,90.48
2018-02-22T08:33:09.971Z,90.96
2018-02-22T08:34:09.945Z,90.77
2018-02-22T08:35:09.925Z,89.35
2018-02-22T08:36:09.969Z,89.2
2018-02-22T08:37:09.654Z,88.82
2018-02-22T08:38:09.896Z,88.17
2018-02-22T08:39:09.871Z,88.73
2018-02-22T08:40:09.599Z,88.64
2018-02-22T08:41:09.849Z,88.17
2018-02-22T08:42:09.830Z,87.88
2018-02-22T08:43:09.819Z,88.35
2018-02-22T08:44:09.838Z,88.73
2018-02-22T08:45:09.790Z,88.73
2018-02-22T08:46:09.769Z,88.73
2018-02-22T08:47:09.757Z,88.26
2018-02-22T08:48:09.493Z,87.78
2018-02-22T08:49:09.754Z,87.78
2018-02-22T08:50:09.719Z,87.31
2018-02-22T08:51:09.705Z,87.02
2018-02-22T08:52:09.690Z,87.12
2018-02-22T08:53:09.707Z,87.02
2018-02-22T08:54:09.659Z,86.55
2018-02-22T08:55:09.648Z,86.74
2018-02-22T08:56:09.380Z,86.74
2018-02-22T08:57:09.647Z,86.27
2018-02-22T08:58:09.612Z,85.23
2018-02-22T08:59:09.588Z,85.99
2018-02-22T09:00:09.315Z,85.8
2018-02-22T09:01:09.563Z,85.89
2018-02-22T09:02:09.309Z,85.7
2018-02-22T09:03:09.543Z,86.55
2018-02-22T09:04:09.550Z,86.93
2018-02-22T09:05:09.523Z,86.55
2018-02-22T09:06:09.273Z,86.65
2018-02-22T09:07:09.472Z,86.36
2018-02-22T09:08:09.456Z,86.18
2018-02-22T09:09:09.444Z,85.8
2018-02-22T09:10:09.438Z,84.85
2018-02-22T09:11:09.411Z,84.28
2018-02-22T09:12:09.408Z,84.47
2018-02-22T09:13:09.378Z,84.19
2018-02-22T09:14:09.374Z,83.52
2018-02-22T09:15:09.354Z,84.09
2018-02-22T09:16:09.344Z,84
2018-02-22T09:17:09.337Z,84.47
2018-02-22T09:18:09.323Z,84.19
2018-02-22T09:19:09.034Z,83.62
2018-02-22T09:20:09.283Z,83.81
2018-02-22T09:21:09.281Z,83.05
2018-02-22T09:22:09.258Z,82.76
2018-02-22T09:23:09.246Z,82.67
2018-02-22T09:24:09.224Z,82.01
2018-02-22T09:25:09.215Z,81.25
2018-02-22T09:26:09.198Z,81.53
2018-02-22T09:27:09.179Z,81.72
2018-02-22T09:28:08.910Z,81.25
2018-02-22T09:29:09.172Z,81.82
2018-02-22T09:30:09.143Z,80.68
2018-02-22T09:31:09.129Z,80.02
2018-02-22T09:32:09.104Z,79.93
2018-02-22T09:33:09.113Z,80.02
2018-02-22T09:34:08.829Z,79.36
2018-02-22T09:35:09.066Z,78.98
2018-02-22T09:36:09.057Z,79.26
2018-02-22T09:37:09.047Z,78.59
2018-02-22T09:38:09.037Z,78.79
2018-02-22T09:39:09.016Z,77.37
2018-02-22T09:40:09.005Z,77.46
2018-02-22T09:41:08.977Z,76.89
2018-02-22T09:42:08.960Z,76.61
2018-02-22T09:43:08.968Z,76.42
2018-02-22T09:44:08.941Z,75.95
2018-02-22T09:45:08.930Z,75.51
2018-02-22T09:46:08.910Z,75.19
2018-02-22T09:47:08.897Z,74.9
2018-02-22T09:48:08.873Z,74.81
2018-02-22T09:49:08.880Z,74.05
2018-02-22T09:50:08.861Z,74.24
2018-02-22T09:51:08.582Z,75
2018-02-22T09:52:08.821Z,74.9
2018-02-22T09:53:08.550Z,75.47
2018-02-22T09:54:08.799Z,74.9
2018-02-22T09:55:08.781Z,74.43
2018-02-22T09:56:08.785Z,74.15
2018-02-22T09:57:08.755Z,74.24
2018-02-22T09:58:08.737Z,73.77
2018-02-22T09:59:08.721Z,73.58
2018-02-22T10:00:08.713Z,73.77
2018-02-22T10:01:08.705Z,73.2
2018-02-22T10:02:08.682Z,73.11
2018-02-22T10:03:08.669Z,73.2
2018-02-22T10:04:08.644Z,72.92
2018-02-22T10:05:08.632Z,73.01
2018-02-22T10:06:08.618Z,72.92
2018-02-22T10:07:08.605Z,72.34
2018-02-22T10:08:08.595Z,72.63
2018-02-22T10:09:08.579Z,71.97
2018-02-22T10:10:08.568Z,72.06
2018-02-22T10:11:08.545Z,72
2018-02-22T10:12:08.543Z,71.97
2018-02-22T10:13:08.536Z,71.72
2018-02-22T10:14:08.511Z,72.06
2018-02-22T10:15:08.492Z,72.29
2018-02-22T10:16:08.493Z,72.29
2018-02-22T10:17:08.454Z,72.57
2018-02-22T10:18:08.444Z,72.19
2018-02-22T10:19:08.176Z,71.81
2018-02-22T10:20:08.416Z,72.1
2018-02-22T10:21:08.398Z,72.1
2018-02-22T10:22:08.386Z,71.62
2018-02-22T10:23:08.376Z,71.25
2018-02-22T10:24:08.361Z,71.53
2018-02-22T10:25:08.337Z,70.87
2018-02-22T10:26:08.076Z,70.68
2018-02-22T10:27:08.051Z,70.11
2018-02-22T10:28:08.308Z,71.15
2018-02-22T10:29:08.285Z,70.87
2018-02-22T10:30:08.267Z,71.06
2018-02-22T10:31:08.253Z,70.78
2018-02-22T10:32:07.987Z,70.49
2018-02-22T10:33:08.235Z,70.49
2018-02-22T10:34:08.220Z,70.39
2018-02-22T10:35:08.200Z,70.3
2018-02-22T10:36:08.191Z,70.68
2018-02-22T10:37:08.225Z,69.92
2018-02-22T10:38:08.150Z,69.26
2018-02-22T10:39:07.894Z,69.73
2018-02-22T10:40:08.131Z,69.45
2018-02-22T10:41:08.115Z,69.35
2018-02-22T10:42:08.096Z,69.35
2018-02-22T10:43:08.082Z,69.17
2018-02-22T10:44:07.808Z,68.98
2018-02-22T10:45:08.054Z,68.98
2018-02-22T10:46:08.060Z,68.88
2018-02-22T10:47:08.025Z,68.79
2018-02-22T10:48:08.013Z,69.17
2018-02-22T10:49:08.008Z,69.45
2018-02-22T10:50:08.086Z,69.17
2018-02-22T10:51:07.964Z,68.88
2018-02-22T10:52:07.952Z,68.59
2018-02-22T10:53:07.941Z,67.27
2018-02-22T10:54:07.663Z,65.66
2018-02-22T10:55:07.650Z,65.56
2018-02-22T10:56:07.952Z,65.69
2018-02-22T10:57:07.889Z,65.66
2018-02-22T10:58:07.932Z,65.5
2018-02-22T10:59:07.602Z,63.51
2018-02-22T11:00:07.852Z,61.99
2018-02-22T11:01:07.840Z,61.99
2018-02-22T11:02:07.821Z,62.08
2018-02-22T11:03:07.872Z,61.9
2018-02-22T11:04:07.530Z,62.08
2018-02-22T11:05:07.525Z,62.37
2018-02-22T11:06:07.763Z,62.66
2018-02-22T11:07:07.745Z,62.37
2018-02-22T11:08:07.757Z,61.9
2018-02-22T11:09:07.738Z,61.9
2018-02-22T11:10:07.708Z,61.52
2018-02-22T11:11:07.698Z,61.52
2018-02-22T11:12:07.678Z,61.9
2018-02-22T11:13:07.687Z,61.8
2018-02-22T11:14:07.657Z,61.33
2018-02-22T11:15:07.634Z,60.57
2018-02-22T11:16:07.613Z,60.47
2018-02-22T11:17:07.600Z,60.28
2018-02-22T11:18:07.606Z,61.33
2018-02-22T11:19:07.576Z,61.71
2018-02-22T11:20:07.564Z,60.95
2018-02-22T11:21:07.563Z,60.57
2018-02-22T11:22:07.536Z,61.43
2018-02-22T11:23:07.519Z,60.47
2018-02-22T11:24:07.763Z,60.19
2018-02-22T11:25:07.498Z,59.91
2018-02-22T11:26:07.222Z,60.03
2018-02-22T11:27:07.469Z,60.22
2018-02-22T11:28:07.464Z,60.22
2018-02-22T11:29:07.447Z,58.7
2018-02-22T11:30:07.439Z,56.71
2018-02-22T11:31:07.155Z,55.86
2018-02-22T11:32:07.400Z,55.1
2018-02-22T11:33:07.399Z,55.38
2018-02-22T11:34:07.371Z,54.91
2018-02-22T11:35:07.378Z,55
2018-02-22T11:36:07.353Z,55.1
2018-02-22T11:37:07.078Z,54.25
2018-02-22T11:38:07.330Z,54.06
2018-02-22T11:39:07.307Z,53.87
2018-02-22T11:40:07.295Z,54.72
2018-02-22T11:41:07.294Z,55
2018-02-22T11:42:07.270Z,55
2018-02-22T11:43:07.262Z,55.38
2018-02-22T11:44:07.348Z,55.79
2018-02-22T11:45:07.237Z,55.6
2018-02-22T11:46:07.234Z,53.89
2018-02-22T11:47:07.227Z,52.76
2018-02-22T11:48:07.225Z,51.72
2018-02-22T11:49:07.186Z,52.85
2018-02-22T11:50:07.177Z,52.28
2018-02-22T11:51:07.163Z,52.28
2018-02-22T11:52:07.148Z,52.76
2018-02-22T11:53:07.152Z,52.56
2018-02-22T11:54:07.124Z,52.56
2018-02-22T11:55:07.362Z,52.95
2018-02-22T11:56:07.115Z,52.85
2018-02-22T11:57:06.828Z,52.76
2018-02-22T11:58:07.070Z,52.66
2018-02-22T11:59:07.073Z,52.85
2018-02-22T12:00:07.061Z,52.56
2018-02-22T12:01:07.042Z,52.28
2018-02-22T12:02:07.024Z,52.85
2018-02-22T12:03:07.034Z,52.56
2018-02-22T12:04:07.020Z,52.19
2018-02-22T12:05:06.997Z,52
2018-02-22T12:06:06.989Z,51.52
2018-02-22T12:07:06.970Z,51.62
2018-02-22T12:08:06.693Z,51.72
2018-02-22T12:09:06.932Z,51.62
2018-02-22T12:10:06.938Z,51.81
2018-02-22T12:11:06.669Z,51.81
2018-02-22T12:12:06.901Z,52.09
2018-02-22T12:13:06.895Z,51.33
2018-02-22T12:14:06.901Z,51.72
2018-02-22T12:15:06.617Z,51.72
2018-02-22T12:16:06.883Z,50.57
2018-02-22T12:17:06.859Z,50.1
2018-02-22T12:18:06.832Z,49.63
2018-02-22T12:19:06.825Z,48.68
2018-02-22T12:20:06.801Z,49.05
2018-02-22T12:21:06.789Z,49.43
2018-02-22T12:22:06.775Z,49.53
2018-02-22T12:23:06.775Z,50.01
2018-02-22T12:24:06.748Z,49.91
2018-02-22T12:25:06.497Z,50.2
2018-02-22T12:26:06.726Z,50.76
2018-02-22T12:27:06.463Z,50.76
2018-02-22T12:28:06.697Z,50.1
2018-02-22T12:29:06.698Z,50.1
2018-02-22T12:30:06.682Z,50.01
2018-02-22T12:31:06.672Z,50.57
2018-02-22T12:32:06.395Z,50.83
2018-02-22T12:33:06.378Z,50.83
2018-02-22T12:34:06.635Z,49.98
2018-02-22T12:35:06.625Z,50.29
2018-02-22T12:36:06.341Z,50.74
2018-02-22T12:37:06.584Z,51.21
2018-02-22T12:38:06.642Z,51.31
2018-02-22T12:39:06.570Z,50.93
2018-02-22T12:40:06.554Z,51.03
2018-02-22T12:41:06.546Z,50.57
2018-02-22T12:42:06.526Z,50.48
2018-02-22T12:43:06.940Z,50.1
2018-02-22T12:44:06.498Z,50.01
2018-02-22T12:45:06.499Z,50.01
2018-02-22T12:46:06.223Z,50.01
2018-02-22T12:47:06.471Z,49.82
2018-02-22T12:48:06.465Z,48.96
2018-02-22T12:49:06.180Z,48.49
2018-02-22T12:50:06.168Z,48.68
2018-02-22T12:51:06.412Z,48.68
2018-02-22T12:52:06.410Z,49.05
2018-02-22T12:53:06.395Z,49.63
2018-02-22T12:54:06.376Z,49.82
2018-02-22T12:55:06.368Z,49.53
2018-02-22T12:56:06.359Z,49.72
2018-02-22T12:57:06.348Z,49.91
2018-02-22T12:58:06.334Z,50.01
2018-02-22T12:59:06.314Z,50.01
2018-02-22T13:00:06.312Z,50.1
2018-02-22T13:01:06.031Z,50.01
2018-02-22T13:02:06.017Z,49.91
2018-02-22T13:03:06.265Z,49.82
2018-02-22T13:04:06.276Z,50.67
2018-02-22T13:05:06.243Z,50.93
2018-02-22T13:06:05.994Z,51.03
2018-02-22T13:07:06.213Z,51.31
2018-02-22T13:08:05.984Z,51.4
2018-02-22T13:09:06.197Z,51.5
2018-02-22T13:10:05.919Z,51.62
2018-02-22T13:11:06.165Z,51.4
2018-02-22T13:12:05.897Z,51.4
2018-02-22T13:13:06.138Z,51.52
2018-02-22T13:14:06.132Z,51.52
2018-02-22T13:15:06.116Z,51.52
2018-02-22T13:16:05.849Z,50.95
2018-02-22T13:17:06.094Z,51.14
2018-02-22T13:18:06.082Z,50.57
2018-02-22T13:19:06.070Z,50.2
2018-02-22T13:20:06.059Z,49.82
2018-02-22T13:21:05.783Z,49.82
2018-02-22T13:22:06.044Z,49.91
2018-02-22T13:23:06.012Z,50.1
2018-02-22T13:24:06.021Z,50.48
2018-02-22T13:25:05.992Z,50.29
2018-02-22T13:26:05.983Z,50.86
2018-02-22T13:27:05.964Z,50.76
2018-02-22T13:28:06.003Z,50.95
2018-02-22T13:29:05.936Z,51.05
2018-02-22T13:30:05.963Z,50.76
2018-02-22T13:31:06.026Z,50.86
2018-02-22T13:32:05.907Z,51.05
2018-02-22T13:33:05.892Z,51.05
2018-02-22T13:34:05.874Z,50.67
2018-02-22T13:35:05.863Z,51.33
2018-02-22T13:36:05.848Z,51.43
2018-02-22T13:37:05.608Z,50.95
2018-02-22T13:38:05.834Z,50.95
2018-02-22T13:39:05.812Z,51.05
2018-02-22T13:40:05.815Z,51.05
2018-02-22T13:41:05.786Z,51.14
2018-02-22T13:42:05.519Z,51.05
2018-02-22T13:43:05.505Z,51.52
2018-02-22T13:44:05.762Z,51.52
2018-02-22T13:45:05.747Z,51.33
2018-02-22T13:46:05.730Z,51.62
2018-02-22T13:47:05.455Z,51.43
2018-02-22T13:48:05.706Z,51.52
2018-02-22T13:49:05.696Z,51.62
2018-02-22T13:50:05.674Z,51.33
2018-02-22T13:51:05.406Z,51.52
2018-02-22T13:52:05.657Z,51.52
2018-02-22T13:53:05.776Z,51.52
2018-02-22T13:54:05.627Z,51.81
2018-02-22T13:55:05.354Z,51.52
2018-02-22T13:56:05.600Z,51.9
2018-02-22T13:57:05.337Z,51.62
2018-02-22T13:58:05.584Z,51.81
2018-02-22T13:59:05.563Z,51.81
2018-02-22T14:00:05.559Z,51.62
2018-02-22T14:01:05.539Z,52.56
2018-02-22T14:02:05.527Z,52.28
2018-02-22T14:03:05.512Z,52.37
2018-02-22T14:04:05.508Z,52.56
2018-02-22T14:05:05.230Z,52.85
2018-02-22T14:06:05.216Z,52.56
2018-02-22T14:07:05.462Z,52.73
2018-02-22T14:08:05.449Z,53.68
2018-02-22T14:09:05.439Z,53.49
2018-02-22T14:10:05.435Z,53.2
2018-02-22T14:11:05.152Z,54.06
2018-02-22T14:12:05.144Z,54.82
2018-02-22T14:13:05.387Z,55
2018-02-22T14:14:05.372Z,54.91
2018-02-22T14:15:05.362Z,55.19
2018-02-22T14:16:05.347Z,55.83
2018-02-22T14:17:05.337Z,55.74
2018-02-22T14:18:05.332Z,55.64
2018-02-22T14:19:05.311Z,55.83
2018-02-22T14:20:05.295Z,56.3
2018-02-22T14:21:05.285Z,55.93
2018-02-22T14:22:05.269Z,56.3
2018-02-22T14:23:05.260Z,56.3
2018-02-22T14:24:05.245Z,56.3
2018-02-22T14:25:05.232Z,56.49
2018-02-22T14:26:05.212Z,55.64
2018-02-22T14:27:05.209Z,56.49
2018-02-22T14:28:04.934Z,56.3
2018-02-22T14:29:05.195Z,56.34
2018-02-22T14:30:04.901Z,56.24
2018-02-22T14:31:05.149Z,55.55
2018-02-22T14:32:05.144Z,55.64
2018-02-22T14:33:05.135Z,56.12
2018-02-22T14:34:05.107Z,55.74
2018-02-22T14:35:05.104Z,56.4
2018-02-22T14:36:05.092Z,56.02
2018-02-22T14:37:05.067Z,56.21
2018-02-22T14:38:05.062Z,56.59
2018-02-22T14:39:04.787Z,56.21
2018-02-22T14:40:05.032Z,57.16
2018-02-22T14:41:05.023Z,56.78
2018-02-22T14:42:05.008Z,56.52
2018-02-22T14:43:05.007Z,56.43
2018-02-22T14:44:04.975Z,55.96
2018-02-22T14:45:04.978Z,56.15
2018-02-22T14:46:04.963Z,56.3
2018-02-22T14:47:04.953Z,56.24
2018-02-22T14:48:04.920Z,56.12
2018-02-22T14:49:04.659Z,55.76
2018-02-22T14:50:04.906Z,55.67
2018-02-22T14:51:04.892Z,55.76
2018-02-22T14:52:04.611Z,56.15
2018-02-22T14:53:04.856Z,56.43
2018-02-22T14:54:04.851Z,55.57
2018-02-22T14:55:04.832Z,55.67
2018-02-22T14:56:04.822Z,55.48
2018-02-22T14:57:04.811Z,55.57
2018-02-22T14:58:04.788Z,55.38
2018-02-22T14:59:04.775Z,55.1
2018-02-22T15:00:04.781Z,55
2018-02-22T15:01:04.757Z,54.82
2018-02-22T15:02:05.000Z,55.1
2018-02-22T15:03:04.733Z,55.57
2018-02-22T15:04:04.706Z,56.21
2018-02-22T15:05:04.706Z,56.24
2018-02-22T15:06:04.690Z,56.34
2018-02-22T15:07:04.672Z,55.86
2018-02-22T15:08:04.662Z,56.05
2018-02-22T15:09:04.384Z,55.86
2018-02-22T15:10:04.629Z,56.34
2018-02-22T15:11:04.619Z,56.52
2018-02-22T15:12:04.609Z,56.24
2018-02-22T15:13:04.334Z,56.24